sensor_id;sensor_type;location;lat;lon;timestamp;P1;durP1;ratioP1;P2;durP2;ratioP2
73487;SDS011;61721;42.206;25.320;2023-02-11T00:01:27;17.88;;;8.35;;
73487;SDS011;61721;42.206;25.320;2023-02-11T00:04:28;19.10;;;10.02;;
73487;SDS011;61721;42.206;25.320;2023-02-11T00:07:24;20.05;;;9.88;;
73487;SDS011;61721;42.206;25.320;2023-02-11T00:10:17;19.27;;;11.35;;
73487;SDS011;61721;42.206;25.320;2023-02-11T00:23:17;14.85;;;9.05;;
73487;SDS011;61721;42.206;25.320;2023-02-11T00:26:10;17.52;;;8.68;;
73487;SDS011;61721;42.206;25.320;2023-02-11T00:28:40;18.60;;;9.93;;
73487;SDS011;61721;42.206;25.320;2023-02-11T00:31:09;20.17;;;9.40;;
73487;SDS011;61721;42.206;25.320;2023-02-11T00:34:11;17.98;;;9.45;;
73487;SDS011;61721;42.206;25.320;2023-02-11T00:37:07;15.32;;;8.93;;
73487;SDS011;61721;42.206;25.320;2023-02-11T00:40:02;37.35;;;17.40;;
73487;SDS011;61721;42.206;25.320;2023-02-11T00:42:55;17.45;;;9.57;;
73487;SDS011;61721;42.206;25.320;2023-02-11T00:45:24;17.38;;;9.65;;
73487;SDS011;61721;42.206;25.320;2023-02-11T00:47:55;13.73;;;7.88;;
73487;SDS011;61721;42.206;25.320;2023-02-11T00:50:51;12.95;;;7.70;;
73487;SDS011;61721;42.206;25.320;2023-02-11T00:53:43;16.10;;;7.88;;
73487;SDS011;61721;42.206;25.320;2023-02-11T00:59:58;16.23;;;8.88;;
73487;SDS011;61721;42.206;25.320;2023-02-11T01:02:37;24.15;;;10.32;;
73487;SDS011;61721;42.206;25.320;2023-02-11T01:05:30;23.42;;;11.73;;
73487;SDS011;61721;42.206;25.320;2023-02-11T01:11:24;21.35;;;11.18;;
73487;SDS011;61721;42.206;25.320;2023-02-11T01:13:53;10.57;;;5.72;;
73487;SDS011;61721;42.206;25.320;2023-02-11T01:16:31;9.88;;;5.72;;
73487;SDS011;61721;42.206;25.320;2023-02-11T01:19:30;10.35;;;5.68;;
73487;SDS011;61721;42.206;25.320;2023-02-11T01:28:16;6.90;;;5.45;;
73487;SDS011;61721;42.206;25.320;2023-02-11T01:30:51;11.82;;;6.15;;
73487;SDS011;61721;42.206;25.320;2023-02-11T01:33:46;14.65;;;7.63;;
73487;SDS011;61721;42.206;25.320;2023-02-11T01:42:52;11.63;;;6.40;;
73487;SDS011;61721;42.206;25.320;2023-02-11T01:49:25;10.07;;;5.60;;
73487;SDS011;61721;42.206;25.320;2023-02-11T01:52:27;11.02;;;6.90;;
73487;SDS011;61721;42.206;25.320;2023-02-11T01:55:08;16.88;;;7.40;;
73487;SDS011;61721;42.206;25.320;2023-02-11T01:58:23;17.60;;;8.13;;
73487;SDS011;61721;42.206;25.320;2023-02-11T02:00:50;13.68;;;7.50;;
73487;SDS011;61721;42.206;25.320;2023-02-11T02:03:55;8.43;;;5.78;;
73487;SDS011;61721;42.206;25.320;2023-02-11T02:06:55;12.80;;;7.18;;
73487;SDS011;61721;42.206;25.320;2023-02-11T02:10:04;12.25;;;6.95;;
73487;SDS011;61721;42.206;25.320;2023-02-11T02:13:00;9.45;;;6.00;;
73487;SDS011;61721;42.206;25.320;2023-02-11T02:15:31;11.60;;;7.50;;
73487;SDS011;61721;42.206;25.320;2023-02-11T02:18:28;14.98;;;8.45;;
73487;SDS011;61721;42.206;25.320;2023-02-11T02:21:44;20.02;;;9.85;;
73487;SDS011;61721;42.206;25.320;2023-02-11T02:24:51;11.50;;;6.95;;
73487;SDS011;61721;42.206;25.320;2023-02-11T02:27:52;12.75;;;6.68;;
73487;SDS011;61721;42.206;25.320;2023-02-11T02:30:58;10.35;;;7.10;;
73487;SDS011;61721;42.206;25.320;2023-02-11T02:33:45;13.60;;;7.22;;
73487;SDS011;61721;42.206;25.320;2023-02-11T02:36:21;15.38;;;9.30;;
73487;SDS011;61721;42.206;25.320;2023-02-11T02:42:21;11.63;;;7.25;;
73487;SDS011;61721;42.206;25.320;2023-02-11T02:45:15;8.45;;;6.13;;
73487;SDS011;61721;42.206;25.320;2023-02-11T02:48:21;11.60;;;6.75;;
73487;SDS011;61721;42.206;25.320;2023-02-11T02:50:52;10.88;;;6.75;;
73487;SDS011;61721;42.206;25.320;2023-02-11T02:54:04;15.65;;;7.80;;
73487;SDS011;61721;42.206;25.320;2023-02-11T02:57:17;12.68;;;6.80;;
73487;SDS011;61721;42.206;25.320;2023-02-11T03:00:22;10.73;;;7.35;;
73487;SDS011;61721;42.206;25.320;2023-02-11T03:06:23;9.43;;;7.25;;
73487;SDS011;61721;42.206;25.320;2023-02-11T03:09:11;12.05;;;7.20;;
73487;SDS011;61721;42.206;25.320;2023-02-11T03:14:27;8.38;;;5.75;;
73487;SDS011;61721;42.206;25.320;2023-02-11T03:17:23;10.27;;;4.72;;
73487;SDS011;61721;42.206;25.320;2023-02-11T03:19:53;8.20;;;5.03;;
73487;SDS011;61721;42.206;25.320;2023-02-11T03:22:26;8.02;;;4.68;;
73487;SDS011;61721;42.206;25.320;2023-02-11T03:25:26;7.88;;;5.38;;
73487;SDS011;61721;42.206;25.320;2023-02-11T03:28:22;8.43;;;5.68;;
73487;SDS011;61721;42.206;25.320;2023-02-11T03:31:00;19.65;;;10.52;;
73487;SDS011;61721;42.206;25.320;2023-02-11T03:33:39;16.10;;;10.70;;
73487;SDS011;61721;42.206;25.320;2023-02-11T03:36:41;13.05;;;7.20;;
73487;SDS011;61721;42.206;25.320;2023-02-11T03:39:45;5.80;;;3.67;;
73487;SDS011;61721;42.206;25.320;2023-02-11T03:42:21;14.15;;;4.15;;
73487;SDS011;61721;42.206;25.320;2023-02-11T03:45:20;4.85;;;3.40;;
73487;SDS011;61721;42.206;25.320;2023-02-11T03:47:51;6.10;;;3.63;;
73487;SDS011;61721;42.206;25.320;2023-02-11T03:50:22;7.70;;;4.88;;
73487;SDS011;61721;42.206;25.320;2023-02-11T03:52:51;5.18;;;3.55;;
73487;SDS011;61721;42.206;25.320;2023-02-11T03:55:23;6.07;;;4.22;;
73487;SDS011;61721;42.206;25.320;2023-02-11T03:58:18;6.40;;;3.92;;
73487;SDS011;61721;42.206;25.320;2023-02-11T04:01:11;8.73;;;4.63;;
73487;SDS011;61721;42.206;25.320;2023-02-11T04:03:39;7.80;;;4.65;;
73487;SDS011;61721;42.206;25.320;2023-02-11T04:06:31;7.53;;;4.38;;
73487;SDS011;61721;42.206;25.320;2023-02-11T04:09:23;10.70;;;5.63;;
73487;SDS011;61721;42.206;25.320;2023-02-11T04:12:18;6.30;;;4.72;;
73487;SDS011;61721;42.206;25.320;2023-02-11T04:15:12;10.98;;;5.45;;
73487;SDS011;61721;42.206;25.320;2023-02-11T04:18:05;14.80;;;6.97;;
73487;SDS011;61721;42.206;25.320;2023-02-11T04:20:57;12.27;;;5.22;;
73487;SDS011;61721;42.206;25.320;2023-02-11T04:23:27;10.57;;;6.05;;
73487;SDS011;61721;42.206;25.320;2023-02-11T04:26:21;13.68;;;7.07;;
73487;SDS011;61721;42.206;25.320;2023-02-11T04:29:15;8.00;;;5.75;;
73487;SDS011;61721;42.206;25.320;2023-02-11T04:32:09;11.23;;;6.22;;
73487;SDS011;61721;42.206;25.320;2023-02-11T04:34:37;24.25;;;12.52;;
73487;SDS011;61721;42.206;25.320;2023-02-11T04:37:29;14.55;;;9.43;;
73487;SDS011;61721;42.206;25.320;2023-02-11T04:39:56;17.40;;;11.27;;
73487;SDS011;61721;42.206;25.320;2023-02-11T04:42:24;12.57;;;8.43;;
73487;SDS011;61721;42.206;25.320;2023-02-11T04:44:54;19.15;;;8.88;;
73487;SDS011;61721;42.206;25.320;2023-02-11T04:47:21;11.48;;;6.15;;
73487;SDS011;61721;42.206;25.320;2023-02-11T04:50:14;13.10;;;7.72;;
73487;SDS011;61721;42.206;25.320;2023-02-11T04:52:41;11.48;;;7.32;;
73487;SDS011;61721;42.206;25.320;2023-02-11T04:55:35;11.73;;;7.20;;
73487;SDS011;61721;42.206;25.320;2023-02-11T04:58:02;36.50;;;18.80;;
73487;SDS011;61721;42.206;25.320;2023-02-11T05:00:59;20.77;;;12.90;;
73487;SDS011;61721;42.206;25.320;2023-02-11T05:06:29;11.35;;;6.72;;
73487;SDS011;61721;42.206;25.320;2023-02-11T05:08:57;11.57;;;6.70;;
73487;SDS011;61721;42.206;25.320;2023-02-11T05:11:25;9.52;;;5.07;;
73487;SDS011;61721;42.206;25.320;2023-02-11T05:13:54;21.38;;;4.57;;
73487;SDS011;61721;42.206;25.320;2023-02-11T05:16:24;12.48;;;6.05;;
73487;SDS011;61721;42.206;25.320;2023-02-11T05:19:16;21.25;;;5.10;;
73487;SDS011;61721;42.206;25.320;2023-02-11T05:22:11;27.42;;;13.00;;
73487;SDS011;61721;42.206;25.320;2023-02-11T05:24:40;64.28;;;28.25;;
73487;SDS011;61721;42.206;25.320;2023-02-11T05:27:08;32.08;;;16.52;;
73487;SDS011;61721;42.206;25.320;2023-02-11T05:30:02;13.35;;;9.05;;
73487;SDS011;61721;42.206;25.320;2023-02-11T05:32:57;19.33;;;9.82;;
73487;SDS011;61721;42.206;25.320;2023-02-11T05:35:51;12.55;;;8.52;;
73487;SDS011;61721;42.206;25.320;2023-02-11T05:38:49;13.80;;;7.60;;
73487;SDS011;61721;42.206;25.320;2023-02-11T05:41:42;18.25;;;8.77;;
73487;SDS011;61721;42.206;25.320;2023-02-11T05:44:35;14.45;;;8.23;;
73487;SDS011;61721;42.206;25.320;2023-02-11T05:47:28;16.42;;;9.93;;
73487;SDS011;61721;42.206;25.320;2023-02-11T05:50:23;13.23;;;8.35;;
73487;SDS011;61721;42.206;25.320;2023-02-11T05:52:50;20.50;;;13.00;;
73487;SDS011;61721;42.206;25.320;2023-02-11T05:55:43;25.65;;;15.98;;
73487;SDS011;61721;42.206;25.320;2023-02-11T05:58:36;26.27;;;15.60;;
73487;SDS011;61721;42.206;25.320;2023-02-11T06:01:04;21.35;;;11.82;;
73487;SDS011;61721;42.206;25.320;2023-02-11T06:03:31;15.75;;;9.93;;
73487;SDS011;61721;42.206;25.320;2023-02-11T06:06:05;15.50;;;9.40;;
73487;SDS011;61721;42.206;25.320;2023-02-11T06:09:08;10.10;;;7.07;;
73487;SDS011;61721;42.206;25.320;2023-02-11T06:11:37;15.02;;;6.57;;
73487;SDS011;61721;42.206;25.320;2023-02-11T06:14:31;17.40;;;8.95;;
73487;SDS011;61721;42.206;25.320;2023-02-11T06:17:24;41.15;;;20.08;;
73487;SDS011;61721;42.206;25.320;2023-02-11T06:19:56;85.95;;;34.50;;
73487;SDS011;61721;42.206;25.320;2023-02-11T06:22:27;81.38;;;34.67;;
73487;SDS011;61721;42.206;25.320;2023-02-11T06:25:20;49.38;;;22.00;;
73487;SDS011;61721;42.206;25.320;2023-02-11T06:28:13;60.33;;;29.77;;
73487;SDS011;61721;42.206;25.320;2023-02-11T06:30:42;86.75;;;36.13;;
73487;SDS011;61721;42.206;25.320;2023-02-11T06:33:11;72.97;;;28.08;;
73487;SDS011;61721;42.206;25.320;2023-02-11T06:35:40;59.88;;;27.35;;
73487;SDS011;61721;42.206;25.320;2023-02-11T06:38:10;43.92;;;20.42;;
73487;SDS011;61721;42.206;25.320;2023-02-11T06:40:56;16.60;;;9.93;;
73487;SDS011;61721;42.206;25.320;2023-02-11T06:43:23;17.48;;;11.25;;
73487;SDS011;61721;42.206;25.320;2023-02-11T06:45:52;13.60;;;6.90;;
73487;SDS011;61721;42.206;25.320;2023-02-11T06:48:46;16.52;;;8.02;;
73487;SDS011;61721;42.206;25.320;2023-02-11T06:51:43;12.18;;;7.22;;
73487;SDS011;61721;42.206;25.320;2023-02-11T06:54:13;13.63;;;7.88;;
73487;SDS011;61721;42.206;25.320;2023-02-11T06:57:07;17.90;;;9.98;;
73487;SDS011;61721;42.206;25.320;2023-02-11T06:59:35;17.38;;;9.43;;
73487;SDS011;61721;42.206;25.320;2023-02-11T07:02:29;15.20;;;9.77;;
73487;SDS011;61721;42.206;25.320;2023-02-11T07:05:03;18.20;;;9.15;;
73487;SDS011;61721;42.206;25.320;2023-02-11T07:07:57;13.93;;;6.32;;
73487;SDS011;61721;42.206;25.320;2023-02-11T07:10:53;22.58;;;11.88;;
73487;SDS011;61721;42.206;25.320;2023-02-11T07:13:49;11.70;;;7.43;;
73487;SDS011;61721;42.206;25.320;2023-02-11T07:16:44;16.92;;;8.18;;
73487;SDS011;61721;42.206;25.320;2023-02-11T07:19:14;13.27;;;8.15;;
73487;SDS011;61721;42.206;25.320;2023-02-11T07:22:07;15.35;;;8.82;;
73487;SDS011;61721;42.206;25.320;2023-02-11T07:25:00;13.57;;;8.43;;
73487;SDS011;61721;42.206;25.320;2023-02-11T07:27:30;20.17;;;11.45;;
73487;SDS011;61721;42.206;25.320;2023-02-11T07:30:22;25.60;;;14.35;;
73487;SDS011;61721;42.206;25.320;2023-02-11T07:33:03;25.30;;;12.65;;
73487;SDS011;61721;42.206;25.320;2023-02-11T07:35:58;25.08;;;12.38;;
73487;SDS011;61721;42.206;25.320;2023-02-11T07:38:52;22.42;;;12.13;;
73487;SDS011;61721;42.206;25.320;2023-02-11T07:41:45;18.13;;;9.05;;
73487;SDS011;61721;42.206;25.320;2023-02-11T07:44:41;22.65;;;13.02;;
73487;SDS011;61721;42.206;25.320;2023-02-11T07:47:33;15.48;;;8.18;;
73487;SDS011;61721;42.206;25.320;2023-02-11T07:50:30;12.98;;;7.70;;
73487;SDS011;61721;42.206;25.320;2023-02-11T07:53:24;16.20;;;9.35;;
73487;SDS011;61721;42.206;25.320;2023-02-11T07:56:18;16.08;;;10.05;;
73487;SDS011;61721;42.206;25.320;2023-02-11T07:59:12;21.30;;;12.02;;
73487;SDS011;61721;42.206;25.320;2023-02-11T08:01:41;15.88;;;8.88;;
73487;SDS011;61721;42.206;25.320;2023-02-11T08:04:09;15.77;;;9.02;;
73487;SDS011;61721;42.206;25.320;2023-02-11T08:07:04;15.90;;;10.77;;
73487;SDS011;61721;42.206;25.320;2023-02-11T08:09:56;18.45;;;10.70;;
73487;SDS011;61721;42.206;25.320;2023-02-11T08:12:23;15.25;;;7.80;;
73487;SDS011;61721;42.206;25.320;2023-02-11T08:14:51;13.63;;;8.07;;
73487;SDS011;61721;42.206;25.320;2023-02-11T08:17:47;15.15;;;7.38;;
73487;SDS011;61721;42.206;25.320;2023-02-11T08:20:41;14.25;;;8.40;;
73487;SDS011;61721;42.206;25.320;2023-02-11T08:23:47;17.25;;;9.40;;
73487;SDS011;61721;42.206;25.320;2023-02-11T08:26:40;14.75;;;8.57;;
73487;SDS011;61721;42.206;25.320;2023-02-11T08:29:10;14.38;;;8.05;;
73487;SDS011;61721;42.206;25.320;2023-02-11T08:31:44;17.98;;;8.50;;
73487;SDS011;61721;42.206;25.320;2023-02-11T08:34:41;18.30;;;8.98;;
73487;SDS011;61721;42.206;25.320;2023-02-11T08:37:10;14.38;;;7.93;;
73487;SDS011;61721;42.206;25.320;2023-02-11T08:40:06;18.13;;;8.35;;
73487;SDS011;61721;42.206;25.320;2023-02-11T08:42:35;15.05;;;8.75;;
73487;SDS011;61721;42.206;25.320;2023-02-11T08:45:28;18.80;;;7.70;;
73487;SDS011;61721;42.206;25.320;2023-02-11T08:47:57;17.88;;;8.98;;
73487;SDS011;61721;42.206;25.320;2023-02-11T08:53:32;22.08;;;12.23;;
73487;SDS011;61721;42.206;25.320;2023-02-11T08:55:59;14.57;;;7.05;;
73487;SDS011;61721;42.206;25.320;2023-02-11T08:58:53;15.85;;;8.23;;
73487;SDS011;61721;42.206;25.320;2023-02-11T09:01:45;14.13;;;7.57;;
73487;SDS011;61721;42.206;25.320;2023-02-11T09:04:51;17.27;;;8.63;;
73487;SDS011;61721;42.206;25.320;2023-02-11T09:07:45;16.40;;;8.05;;
73487;SDS011;61721;42.206;25.320;2023-02-11T09:10:39;16.13;;;7.55;;
73487;SDS011;61721;42.206;25.320;2023-02-11T09:13:07;17.25;;;8.52;;
73487;SDS011;61721;42.206;25.320;2023-02-11T09:15:37;13.15;;;7.68;;
73487;SDS011;61721;42.206;25.320;2023-02-11T09:18:29;16.00;;;8.65;;
73487;SDS011;61721;42.206;25.320;2023-02-11T09:24:26;15.88;;;8.80;;
73487;SDS011;61721;42.206;25.320;2023-02-11T09:27:21;18.55;;;9.15;;
73487;SDS011;61721;42.206;25.320;2023-02-11T09:29:48;19.05;;;11.13;;
73487;SDS011;61721;42.206;25.320;2023-02-11T09:32:16;20.30;;;10.57;;
73487;SDS011;61721;42.206;25.320;2023-02-11T09:35:08;18.75;;;9.30;;
73487;SDS011;61721;42.206;25.320;2023-02-11T09:38:00;17.15;;;9.15;;
73487;SDS011;61721;42.206;25.320;2023-02-11T09:40:29;20.33;;;8.82;;
73487;SDS011;61721;42.206;25.320;2023-02-11T09:43:23;17.40;;;9.85;;
73487;SDS011;61721;42.206;25.320;2023-02-11T09:45:56;17.83;;;9.73;;
73487;SDS011;61721;42.206;25.320;2023-02-11T09:48:51;14.93;;;9.25;;
73487;SDS011;61721;42.206;25.320;2023-02-11T09:51:23;22.05;;;9.50;;
73487;SDS011;61721;42.206;25.320;2023-02-11T09:54:27;19.77;;;10.55;;
73487;SDS011;61721;42.206;25.320;2023-02-11T09:57:04;18.48;;;11.05;;
73487;SDS011;61721;42.206;25.320;2023-02-11T10:00:02;22.55;;;11.57;;
73487;SDS011;61721;42.206;25.320;2023-02-11T10:03:11;21.10;;;11.38;;
73487;SDS011;61721;42.206;25.320;2023-02-11T10:06:09;21.42;;;13.82;;
73487;SDS011;61721;42.206;25.320;2023-02-11T10:09:17;19.67;;;11.73;;
73487;SDS011;61721;42.206;25.320;2023-02-11T10:12:14;21.25;;;9.43;;
73487;SDS011;61721;42.206;25.320;2023-02-11T10:15:21;19.92;;;12.35;;
73487;SDS011;61721;42.206;25.320;2023-02-11T10:18:33;16.75;;;11.20;;
73487;SDS011;61721;42.206;25.320;2023-02-11T10:21:18;19.92;;;11.13;;
73487;SDS011;61721;42.206;25.320;2023-02-11T10:24:17;17.50;;;10.10;;
73487;SDS011;61721;42.206;25.320;2023-02-11T10:27:14;19.70;;;10.73;;
73487;SDS011;61721;42.206;25.320;2023-02-11T10:29:45;17.98;;;10.40;;
73487;SDS011;61721;42.206;25.320;2023-02-11T10:32:43;24.65;;;14.32;;
73487;SDS011;61721;42.206;25.320;2023-02-11T10:35:40;17.83;;;10.93;;
73487;SDS011;61721;42.206;25.320;2023-02-11T10:38:08;20.67;;;12.93;;
73487;SDS011;61721;42.206;25.320;2023-02-11T10:40:38;14.43;;;10.63;;
73487;SDS011;61721;42.206;25.320;2023-02-11T10:43:40;16.50;;;10.57;;
73487;SDS011;61721;42.206;25.320;2023-02-11T10:46:35;20.67;;;12.85;;
73487;SDS011;61721;42.206;25.320;2023-02-11T10:49:33;12.68;;;7.65;;
73487;SDS011;61721;42.206;25.320;2023-02-11T10:52:28;15.15;;;10.25;;
73487;SDS011;61721;42.206;25.320;2023-02-11T10:55:24;12.45;;;8.13;;
73487;SDS011;61721;42.206;25.320;2023-02-11T10:57:55;13.75;;;7.72;;
73487;SDS011;61721;42.206;25.320;2023-02-11T11:00:55;13.98;;;7.60;;
73487;SDS011;61721;42.206;25.320;2023-02-11T11:03:51;12.35;;;7.80;;
73487;SDS011;61721;42.206;25.320;2023-02-11T11:06:27;16.60;;;9.43;;
73487;SDS011;61721;42.206;25.320;2023-02-11T11:09:26;24.75;;;12.98;;
73487;SDS011;61721;42.206;25.320;2023-02-11T11:11:55;19.40;;;10.93;;
73487;SDS011;61721;42.206;25.320;2023-02-11T11:14:52;11.75;;;7.85;;
73487;SDS011;61721;42.206;25.320;2023-02-11T11:18:07;10.43;;;7.10;;
73487;SDS011;61721;42.206;25.320;2023-02-11T11:20:53;13.23;;;8.63;;
73487;SDS011;61721;42.206;25.320;2023-02-11T11:23:23;12.40;;;8.25;;
73487;SDS011;61721;42.206;25.320;2023-02-11T11:26:17;11.95;;;7.97;;
73487;SDS011;61721;42.206;25.320;2023-02-11T11:28:54;11.73;;;7.80;;
73487;SDS011;61721;42.206;25.320;2023-02-11T11:31:27;12.43;;;8.02;;
73487;SDS011;61721;42.206;25.320;2023-02-11T11:34:00;12.05;;;7.90;;
73487;SDS011;61721;42.206;25.320;2023-02-11T11:36:32;14.02;;;9.45;;
73487;SDS011;61721;42.206;25.320;2023-02-11T11:39:09;13.48;;;8.30;;
73487;SDS011;61721;42.206;25.320;2023-02-11T11:42:21;13.38;;;8.77;;
73487;SDS011;61721;42.206;25.320;2023-02-11T11:45:21;14.32;;;8.75;;
73487;SDS011;61721;42.206;25.320;2023-02-11T11:48:17;10.38;;;7.45;;
73487;SDS011;61721;42.206;25.320;2023-02-11T11:50:52;16.05;;;7.88;;
73487;SDS011;61721;42.206;25.320;2023-02-11T11:53:50;10.05;;;6.72;;
73487;SDS011;61721;42.206;25.320;2023-02-11T11:56:50;10.30;;;6.65;;
73487;SDS011;61721;42.206;25.320;2023-02-11T11:59:47;12.38;;;7.95;;
73487;SDS011;61721;42.206;25.320;2023-02-11T12:02:34;10.00;;;7.28;;
73487;SDS011;61721;42.206;25.320;2023-02-11T12:05:26;13.05;;;6.82;;
73487;SDS011;61721;42.206;25.320;2023-02-11T12:08:30;14.30;;;7.80;;
73487;SDS011;61721;42.206;25.320;2023-02-11T12:11:35;11.27;;;7.20;;
73487;SDS011;61721;42.206;25.320;2023-02-11T12:14:49;10.00;;;6.95;;
73487;SDS011;61721;42.206;25.320;2023-02-11T12:17:30;11.00;;;6.88;;
73487;SDS011;61721;42.206;25.320;2023-02-11T12:20:49;10.40;;;7.25;;
73487;SDS011;61721;42.206;25.320;2023-02-11T12:24:05;14.25;;;7.47;;
73487;SDS011;61721;42.206;25.320;2023-02-11T12:27:11;11.40;;;6.20;;
73487;SDS011;61721;42.206;25.320;2023-02-11T12:30:17;11.27;;;7.03;;
73487;SDS011;61721;42.206;25.320;2023-02-11T12:33:23;12.05;;;6.72;;
73487;SDS011;61721;42.206;25.320;2023-02-11T12:36:05;8.90;;;6.07;;
73487;SDS011;61721;42.206;25.320;2023-02-11T12:38:47;8.98;;;5.60;;
73487;SDS011;61721;42.206;25.320;2023-02-11T12:41:35;9.45;;;5.43;;
73487;SDS011;61721;42.206;25.320;2023-02-11T12:44:32;8.15;;;5.13;;
73487;SDS011;61721;42.206;25.320;2023-02-11T12:47:38;11.93;;;6.80;;
73487;SDS011;61721;42.206;25.320;2023-02-11T12:50:43;10.63;;;7.18;;
73487;SDS011;61721;42.206;25.320;2023-02-11T12:53:54;11.65;;;5.88;;
73487;SDS011;61721;42.206;25.320;2023-02-11T12:57:14;7.10;;;4.85;;
73487;SDS011;61721;42.206;25.320;2023-02-11T12:59:50;13.18;;;4.88;;
73487;SDS011;61721;42.206;25.320;2023-02-11T13:03:00;7.82;;;5.13;;
73487;SDS011;61721;42.206;25.320;2023-02-11T13:05:37;9.98;;;6.00;;
73487;SDS011;61721;42.206;25.320;2023-02-11T13:08:34;8.95;;;5.40;;
73487;SDS011;61721;42.206;25.320;2023-02-11T13:11:33;8.32;;;5.15;;
73487;SDS011;61721;42.206;25.320;2023-02-11T13:14:33;10.02;;;4.03;;
73487;SDS011;61721;42.206;25.320;2023-02-11T13:17:32;8.57;;;4.30;;
73487;SDS011;61721;42.206;25.320;2023-02-11T13:20:32;10.10;;;4.75;;
73487;SDS011;61721;42.206;25.320;2023-02-11T13:23:34;8.13;;;5.05;;
73487;SDS011;61721;42.206;25.320;2023-02-11T13:26:36;7.95;;;4.50;;
73487;SDS011;61721;42.206;25.320;2023-02-11T13:29:17;8.90;;;4.80;;
73487;SDS011;61721;42.206;25.320;2023-02-11T13:32:11;9.73;;;6.15;;
73487;SDS011;61721;42.206;25.320;2023-02-11T13:35:24;12.98;;;6.90;;
73487;SDS011;61721;42.206;25.320;2023-02-11T13:37:55;10.05;;;6.43;;
73487;SDS011;61721;42.206;25.320;2023-02-11T13:40:29;8.50;;;5.55;;
73487;SDS011;61721;42.206;25.320;2023-02-11T13:43:25;8.63;;;4.90;;
73487;SDS011;61721;42.206;25.320;2023-02-11T13:46:20;8.27;;;5.18;;
73487;SDS011;61721;42.206;25.320;2023-02-11T13:49:18;11.18;;;7.25;;
73487;SDS011;61721;42.206;25.320;2023-02-11T13:52:18;6.82;;;4.38;;
73487;SDS011;61721;42.206;25.320;2023-02-11T13:54:50;8.07;;;4.57;;
73487;SDS011;61721;42.206;25.320;2023-02-11T13:58:02;8.35;;;4.68;;
73487;SDS011;61721;42.206;25.320;2023-02-11T14:00:44;11.30;;;7.28;;
73487;SDS011;61721;42.206;25.320;2023-02-11T14:03:39;8.98;;;5.78;;
73487;SDS011;61721;42.206;25.320;2023-02-11T14:07:26;10.45;;;6.30;;
73487;SDS011;61721;42.206;25.320;2023-02-11T14:19:47;8.10;;;5.07;;
73487;SDS011;61721;42.206;25.320;2023-02-11T14:22:43;8.98;;;5.38;;
73487;SDS011;61721;42.206;25.320;2023-02-11T14:25:41;9.48;;;5.68;;
73487;SDS011;61721;42.206;25.320;2023-02-11T14:31:14;9.55;;;6.15;;
73487;SDS011;61721;42.206;25.320;2023-02-11T14:33:59;9.18;;;5.50;;
73487;SDS011;61721;42.206;25.320;2023-02-11T14:37:06;10.38;;;6.65;;
73487;SDS011;61721;42.206;25.320;2023-02-11T14:40:15;9.75;;;7.00;;
73487;SDS011;61721;42.206;25.320;2023-02-11T14:43:17;10.82;;;7.13;;
73487;SDS011;61721;42.206;25.320;2023-02-11T14:46:16;11.63;;;7.15;;
73487;SDS011;61721;42.206;25.320;2023-02-11T14:49:11;10.02;;;6.53;;
73487;SDS011;61721;42.206;25.320;2023-02-11T14:52:15;9.18;;;6.30;;
73487;SDS011;61721;42.206;25.320;2023-02-11T14:55:21;11.15;;;7.50;;
73487;SDS011;61721;42.206;25.320;2023-02-11T14:58:10;13.35;;;8.82;;
73487;SDS011;61721;42.206;25.320;2023-02-11T15:01:21;19.55;;;11.38;;
73487;SDS011;61721;42.206;25.320;2023-02-11T15:03:53;27.55;;;17.52;;
73487;SDS011;61721;42.206;25.320;2023-02-11T15:06:21;18.02;;;12.13;;
73487;SDS011;61721;42.206;25.320;2023-02-11T15:08:52;15.32;;;10.13;;
73487;SDS011;61721;42.206;25.320;2023-02-11T15:11:28;10.93;;;7.20;;
73487;SDS011;61721;42.206;25.320;2023-02-11T15:14:05;14.55;;;7.40;;
73487;SDS011;61721;42.206;25.320;2023-02-11T15:16:40;17.63;;;9.20;;
73487;SDS011;61721;42.206;25.320;2023-02-11T15:19:36;11.93;;;7.13;;
73487;SDS011;61721;42.206;25.320;2023-02-11T15:22:41;14.00;;;7.68;;
73487;SDS011;61721;42.206;25.320;2023-02-11T15:25:41;12.43;;;6.93;;
73487;SDS011;61721;42.206;25.320;2023-02-11T15:28:38;14.48;;;6.95;;
73487;SDS011;61721;42.206;25.320;2023-02-11T15:31:20;12.20;;;6.78;;
73487;SDS011;61721;42.206;25.320;2023-02-11T15:33:50;13.52;;;7.10;;
73487;SDS011;61721;42.206;25.320;2023-02-11T15:36:25;13.60;;;7.50;;
73487;SDS011;61721;42.206;25.320;2023-02-11T15:39:39;14.55;;;6.97;;
73487;SDS011;61721;42.206;25.320;2023-02-11T15:42:37;12.90;;;5.50;;
73487;SDS011;61721;42.206;25.320;2023-02-11T15:45:19;26.73;;;17.00;;
73487;SDS011;61721;42.206;25.320;2023-02-11T15:48:21;24.95;;;12.57;;
73487;SDS011;61721;42.206;25.320;2023-02-11T15:51:20;27.17;;;11.85;;
73487;SDS011;61721;42.206;25.320;2023-02-11T15:54:24;20.58;;;11.00;;
73487;SDS011;61721;42.206;25.320;2023-02-11T15:57:21;24.85;;;11.50;;
73487;SDS011;61721;42.206;25.320;2023-02-11T16:00:31;23.70;;;12.65;;
73487;SDS011;61721;42.206;25.320;2023-02-11T16:03:04;30.73;;;15.00;;
73487;SDS011;61721;42.206;25.320;2023-02-11T16:06:20;35.08;;;15.23;;
73487;SDS011;61721;42.206;25.320;2023-02-11T16:09:30;49.03;;;26.00;;
73487;SDS011;61721;42.206;25.320;2023-02-11T16:12:34;46.00;;;21.20;;
73487;SDS011;61721;42.206;25.320;2023-02-11T16:18:35;61.10;;;29.15;;
73487;SDS011;61721;42.206;25.320;2023-02-11T16:21:31;69.68;;;34.10;;
73487;SDS011;61721;42.206;25.320;2023-02-11T16:24:14;70.07;;;34.00;;
73487;SDS011;61721;42.206;25.320;2023-02-11T16:27:17;60.70;;;28.75;;
73487;SDS011;61721;42.206;25.320;2023-02-11T16:29:50;40.92;;;21.73;;
73487;SDS011;61721;42.206;25.320;2023-02-11T16:32:27;43.28;;;20.52;;
73487;SDS011;61721;42.206;25.320;2023-02-11T16:35:22;42.40;;;21.33;;
73487;SDS011;61721;42.206;25.320;2023-02-11T16:38:15;51.67;;;25.70;;
73487;SDS011;61721;42.206;25.320;2023-02-11T16:41:16;59.78;;;30.45;;
73487;SDS011;61721;42.206;25.320;2023-02-11T16:43:47;50.33;;;24.15;;
73487;SDS011;61721;42.206;25.320;2023-02-11T16:46:40;58.38;;;28.13;;
73487;SDS011;61721;42.206;25.320;2023-02-11T16:49:14;59.70;;;27.83;;
73487;SDS011;61721;42.206;25.320;2023-02-11T16:51:47;74.22;;;31.30;;
73487;SDS011;61721;42.206;25.320;2023-02-11T16:57:19;35.50;;;18.45;;
73487;SDS011;61721;42.206;25.320;2023-02-11T17:02:55;15.75;;;8.38;;
73487;SDS011;61721;42.206;25.320;2023-02-11T17:05:43;14.35;;;7.65;;
73487;SDS011;61721;42.206;25.320;2023-02-11T17:08:30;12.55;;;7.65;;
73487;SDS011;61721;42.206;25.320;2023-02-11T17:11:16;20.65;;;10.15;;
73487;SDS011;61721;42.206;25.320;2023-02-11T17:14:02;71.78;;;25.08;;
73487;SDS011;61721;42.206;25.320;2023-02-11T17:16:50;140.20;;;47.85;;
73487;SDS011;61721;42.206;25.320;2023-02-11T17:19:37;61.20;;;28.15;;
73487;SDS011;61721;42.206;25.320;2023-02-11T17:22:26;39.17;;;17.98;;
73487;SDS011;61721;42.206;25.320;2023-02-11T17:25:12;17.63;;;8.75;;
73487;SDS011;61721;42.206;25.320;2023-02-11T17:27:59;20.15;;;10.02;;
73487;SDS011;61721;42.206;25.320;2023-02-11T17:30:48;18.80;;;9.20;;
73487;SDS011;61721;42.206;25.320;2023-02-11T17:33:35;28.15;;;11.98;;
73487;SDS011;61721;42.206;25.320;2023-02-11T17:36:21;24.27;;;10.95;;